createdAt,value
2018-08-10T00:00:02.843Z,25.5
2018-08-10T00:01:02.959Z,25.5
2018-08-10T00:02:02.690Z,25.5
2018-08-10T00:03:02.823Z,25.5
2018-08-10T00:04:02.906Z,25.5
2018-08-10T00:05:02.854Z,25.5
2018-08-10T00:06:02.658Z,25.5
2018-08-10T00:07:02.824Z,25.5
2018-08-10T00:08:02.791Z,25.5
2018-08-10T00:09:03.093Z,25.5
2018-08-10T00:10:03.118Z,25.5
2018-08-10T00:11:02.878Z,25.5
2018-08-10T00:12:02.716Z,25.5
2018-08-10T00:13:02.902Z,25.5
2018-08-10T00:14:02.982Z,25.5
2018-08-10T00:15:02.785Z,25.5
2018-08-10T00:16:02.817Z,25.5
2018-08-10T00:17:02.956Z,25.5
2018-08-10T00:18:03.103Z,25.5
2018-08-10T00:19:02.665Z,25.5
2018-08-10T00:20:02.956Z,25.5
2018-08-10T00:21:02.820Z,25.5
2018-08-10T00:22:02.847Z,25.5
2018-08-10T00:23:02.908Z,25.5
2018-08-10T00:24:02.634Z,25.5
2018-08-10T00:25:02.726Z,25.5
2018-08-10T00:26:02.627Z,25.5
2018-08-10T00:27:02.652Z,25.5
2018-08-10T00:28:02.729Z,25.5
2018-08-10T00:29:02.782Z,25.5
2018-08-10T00:30:02.806Z,25.5
2018-08-10T00:31:02.709Z,25.5
2018-08-10T00:32:02.764Z,25.5
2018-08-10T00:33:02.694Z,25.5
2018-08-10T00:34:02.851Z,25.5
2018-08-10T00:35:02.815Z,25.5
2018-08-10T00:36:02.748Z,25.5
2018-08-10T00:37:02.898Z,25.5
2018-08-10T00:38:02.746Z,25.5
2018-08-10T00:39:02.700Z,25.5
2018-08-10T00:40:02.761Z,25.5
2018-08-10T00:41:02.859Z,25.5
2018-08-10T00:42:02.921Z,25.5
2018-08-10T00:43:02.790Z,25.5
2018-08-10T00:44:02.852Z,25.5
2018-08-10T00:45:02.810Z,25.5
2018-08-10T00:46:02.983Z,25.5
2018-08-10T00:47:02.754Z,25.5
2018-08-10T00:48:02.950Z,25.5
2018-08-10T00:49:02.726Z,25.5
2018-08-10T00:50:03.077Z,25.5
2018-08-10T00:51:02.859Z,25.5
2018-08-10T00:52:02.820Z,25.5
2018-08-10T00:53:03.181Z,25.5
2018-08-10T00:54:02.768Z,25.5
2018-08-10T00:55:02.704Z,25.5
2018-08-10T00:56:02.719Z,25.5
2018-08-10T00:57:02.919Z,25.5
2018-08-10T00:58:02.675Z,25.5
2018-08-10T00:59:02.944Z,25.5
2018-08-10T01:00:02.580Z,25.5
2018-08-10T01:01:02.682Z,25.5
2018-08-10T01:02:02.920Z,25.5
2018-08-10T01:03:02.910Z,25.5
2018-08-10T01:04:02.860Z,25.5
2018-08-10T01:05:02.722Z,25.5
2018-08-10T01:06:02.779Z,25.5
2018-08-10T01:07:02.716Z,25.5
2018-08-10T01:08:02.793Z,25.5
2018-08-10T01:09:02.719Z,25.5
2018-08-10T01:10:02.748Z,25.5
2018-08-10T01:11:02.863Z,25.5
2018-08-10T01:12:02.805Z,25.5
2018-08-10T01:13:02.830Z,25.5
2018-08-10T01:14:03.010Z,25.5
2018-08-10T01:15:02.820Z,25.5
2018-08-10T01:16:02.745Z,25.5
2018-08-10T01:17:02.966Z,25.5
2018-08-10T01:18:02.711Z,25.5
2018-08-10T01:19:02.989Z,25.5
2018-08-10T01:20:02.671Z,25.5
2018-08-10T01:21:02.727Z,25.5
2018-08-10T01:22:02.806Z,25.5
2018-08-10T01:23:02.843Z,25.5
2018-08-10T01:24:02.739Z,25.5
2018-08-10T01:25:02.891Z,25.5
2018-08-10T01:26:02.857Z,25.5
2018-08-10T01:27:02.831Z,25.5
2018-08-10T01:28:02.778Z,25.5
2018-08-10T01:29:03.180Z,25.5
2018-08-10T01:30:02.816Z,25.5
2018-08-10T01:31:02.905Z,25.5
2018-08-10T01:32:02.918Z,25.5
2018-08-10T01:33:02.905Z,25.5
2018-08-10T01:34:02.928Z,25.5
2018-08-10T01:35:02.770Z,25.5
2018-08-10T01:36:02.905Z,25.5
2018-08-10T01:37:02.690Z,25.5
2018-08-10T01:38:02.717Z,25.5
2018-08-10T01:39:02.742Z,25.5
2018-08-10T01:40:02.731Z,25.5
2018-08-10T01:41:02.837Z,25.5
2018-08-10T01:42:02.706Z,25.5
2018-08-10T01:43:02.827Z,25.5
2018-08-10T01:44:02.920Z,25.5
2018-08-10T01:45:02.618Z,25.5
2018-08-10T01:46:02.812Z,25.5
2018-08-10T01:47:02.728Z,25.5
2018-08-10T01:48:02.879Z,25.5
2018-08-10T01:49:02.764Z,25.5
2018-08-10T01:50:02.823Z,25.5
2018-08-10T01:51:02.872Z,25.5
2018-08-10T01:52:02.717Z,25.5
2018-08-10T01:53:02.720Z,25.5
2018-08-10T01:54:02.618Z,25.5
2018-08-10T01:55:02.749Z,25.5
2018-08-10T01:56:02.665Z,25.5
2018-08-10T01:57:02.905Z,25.5
2018-08-10T01:58:02.749Z,25.5
2018-08-10T01:59:02.846Z,25.5
2018-08-10T02:00:02.749Z,25.5
2018-08-10T02:01:02.860Z,25.5
2018-08-10T02:02:02.839Z,25.5
2018-08-10T02:03:02.674Z,25.5
2018-08-10T02:04:02.855Z,25.5
2018-08-10T02:05:02.825Z,25.5
2018-08-10T02:06:02.634Z,25.5
2018-08-10T02:07:02.639Z,25.5
2018-08-10T02:08:02.852Z,25.5
2018-08-10T02:09:03.006Z,25.5
2018-08-10T02:10:02.942Z,25.5
2018-08-10T02:11:02.681Z,25.5
2018-08-10T02:12:02.566Z,25.5
2018-08-10T02:13:02.797Z,25.5
2018-08-10T02:14:02.860Z,25.5
2018-08-10T02:15:02.799Z,25.5
2018-08-10T02:16:02.773Z,25.5
2018-08-10T02:17:03.041Z,25.5
2018-08-10T02:18:02.767Z,25.5
2018-08-10T02:19:02.855Z,25.5
2018-08-10T02:20:02.680Z,25.5
2018-08-10T02:21:02.595Z,25.5
2018-08-10T02:22:02.948Z,25.5
2018-08-10T02:23:02.784Z,25.5
2018-08-10T02:24:02.770Z,25.5
2018-08-10T02:25:02.760Z,25.5
2018-08-10T02:26:02.651Z,25.5
2018-08-10T02:27:02.728Z,25.5
2018-08-10T02:28:02.620Z,25.5
2018-08-10T02:29:02.890Z,25.5
2018-08-10T02:30:03.057Z,25.5
2018-08-10T02:31:02.664Z,25.5
2018-08-10T02:32:02.851Z,25.5
2018-08-10T02:33:02.827Z,25.5
2018-08-10T02:34:02.763Z,25.5
2018-08-10T02:35:02.809Z,25.5
2018-08-10T02:36:02.780Z,25.5
2018-08-10T02:37:02.874Z,25.5
2018-08-10T02:38:02.684Z,25.5
2018-08-10T02:39:02.759Z,25.5
2018-08-10T02:40:02.789Z,25.5
2018-08-10T02:41:03.031Z,25.5
2018-08-10T02:42:02.764Z,25.5
2018-08-10T02:43:02.583Z,25.5
2018-08-10T02:44:02.905Z,25.5
2018-08-10T02:45:03.013Z,25.5
2018-08-10T02:46:02.799Z,25.5
2018-08-10T02:47:02.943Z,25.5
2018-08-10T02:48:02.780Z,25.5
2018-08-10T02:49:02.836Z,25.5
2018-08-10T02:50:02.605Z,25.5
2018-08-10T02:51:02.786Z,25.5
2018-08-10T02:52:02.681Z,25.5
2018-08-10T02:53:02.891Z,25.5
2018-08-10T02:54:02.873Z,25.5
2018-08-10T02:55:02.781Z,25.5
2018-08-10T02:56:02.817Z,25.5
2018-08-10T02:57:02.789Z,25.5
2018-08-10T02:58:02.637Z,25.5
2018-08-10T02:59:02.623Z,25.5
2018-08-10T03:00:02.812Z,25.5
2018-08-10T03:01:02.647Z,25.5
2018-08-10T03:02:02.794Z,25.5
2018-08-10T03:03:02.735Z,25.5
2018-08-10T03:04:02.681Z,25.5
2018-08-10T03:05:02.860Z,25.5
2018-08-10T03:06:02.728Z,25.5
2018-08-10T03:07:02.798Z,25.5
2018-08-10T03:08:02.744Z,25.5
2018-08-10T03:09:02.702Z,25.5
2018-08-10T03:10:02.479Z,25.5
2018-08-10T03:11:02.715Z,25.5
2018-08-10T03:12:02.682Z,25.5
2018-08-10T03:13:02.936Z,25.5
2018-08-10T03:14:02.664Z,25.5
2018-08-10T03:15:02.783Z,25.5
2018-08-10T03:16:02.964Z,25.5
2018-08-10T03:17:02.763Z,25.5
2018-08-10T03:18:02.652Z,25.5
2018-08-10T03:19:02.799Z,25.5
2018-08-10T03:20:02.927Z,25.5
2018-08-10T03:21:02.783Z,25.5
2018-08-10T03:22:02.957Z,25.5
2018-08-10T03:23:02.729Z,25.5
2018-08-10T03:24:02.785Z,25.5
2018-08-10T03:25:03.042Z,25.5
2018-08-10T03:26:03.119Z,25.5
2018-08-10T03:27:02.877Z,25.5
2018-08-10T03:28:02.656Z,25.5
2018-08-10T03:29:02.936Z,25.5
2018-08-10T03:30:02.747Z,25.5
2018-08-10T03:31:02.896Z,25.5
2018-08-10T03:32:02.713Z,25.5
2018-08-10T03:33:02.923Z,25.5
2018-08-10T03:34:02.827Z,25.5
2018-08-10T03:35:02.820Z,25.5
2018-08-10T03:36:02.678Z,25.5
2018-08-10T03:37:02.726Z,25.5
2018-08-10T03:38:02.939Z,25.5
2018-08-10T03:39:02.728Z,25.5
2018-08-10T03:40:02.831Z,25.5
2018-08-10T03:41:03.002Z,25.5
2018-08-10T03:42:03.060Z,25.5
2018-08-10T03:43:02.688Z,25.5
2018-08-10T03:44:02.700Z,25.5
2018-08-10T03:45:02.901Z,25.5
2018-08-10T03:46:02.718Z,25.5
2018-08-10T03:47:02.624Z,25.5
2018-08-10T03:48:02.837Z,25.5
2018-08-10T03:49:02.895Z,25.5
2018-08-10T03:50:02.673Z,25.5
2018-08-10T03:51:02.899Z,25.5
2018-08-10T03:52:02.806Z,25.5
2018-08-10T03:53:02.738Z,25.5
2018-08-10T03:54:02.777Z,25.5
2018-08-10T03:55:02.804Z,25.5
2018-08-10T03:56:02.820Z,25.5
2018-08-10T03:57:02.882Z,25.5
2018-08-10T03:58:02.664Z,25.5
2018-08-10T03:59:02.833Z,25.5
2018-08-10T04:00:02.722Z,25.5
2018-08-10T04:01:02.859Z,25.5
2018-08-10T04:02:02.989Z,25.5
2018-08-10T04:03:02.757Z,25.5
2018-08-10T04:04:02.542Z,25.5
2018-08-10T04:05:02.706Z,25.5
2018-08-10T04:06:02.747Z,25.5
2018-08-10T04:07:02.795Z,25.25
2018-08-10T04:08:02.689Z,25.25
2018-08-10T04:09:02.664Z,25
2018-08-10T04:10:02.793Z,25
2018-08-10T04:11:02.828Z,25
2018-08-10T04:12:02.914Z,24.75
2018-08-10T04:13:02.567Z,24.75
2018-08-10T04:14:02.807Z,24.75
2018-08-10T04:15:02.797Z,24.5
2018-08-10T04:16:02.810Z,24.5
2018-08-10T04:17:02.721Z,24.5
2018-08-10T04:18:02.817Z,24.5
2018-08-10T04:19:02.666Z,24.25
2018-08-10T04:20:02.858Z,24.25
2018-08-10T04:21:02.858Z,24.25
2018-08-10T04:22:02.712Z,24.25
2018-08-10T04:23:02.717Z,24
2018-08-10T04:24:02.735Z,24
2018-08-10T04:25:02.655Z,24
2018-08-10T04:26:02.935Z,24
2018-08-10T04:27:02.799Z,24
2018-08-10T04:28:02.907Z,23.75
2018-08-10T04:29:02.801Z,23.5
2018-08-10T04:30:02.940Z,23.5
2018-08-10T04:31:02.805Z,23.5
2018-08-10T04:32:02.846Z,23.5
2018-08-10T04:33:02.800Z,23.25
2018-08-10T04:34:02.696Z,23.25
2018-08-10T04:35:03.041Z,23.25
2018-08-10T04:36:02.674Z,23.25
2018-08-10T04:37:02.781Z,23.25
2018-08-10T04:38:02.806Z,23
2018-08-10T04:39:02.844Z,23
2018-08-10T04:40:02.731Z,23
2018-08-10T04:41:02.625Z,23
2018-08-10T04:42:02.754Z,23
2018-08-10T04:43:02.679Z,23
2018-08-10T04:44:02.819Z,23
2018-08-10T04:45:02.927Z,23
2018-08-10T04:46:02.789Z,22.75
2018-08-10T04:47:02.660Z,22.75
2018-08-10T04:48:02.944Z,22.75
2018-08-10T04:49:02.602Z,22.75
2018-08-10T04:50:02.760Z,22.75
2018-08-10T04:51:03.098Z,22.75
2018-08-10T04:52:02.767Z,22.75
2018-08-10T04:53:02.773Z,22.75
2018-08-10T04:54:02.796Z,22.75
2018-08-10T04:55:03.185Z,22.75
2018-08-10T04:56:02.627Z,22.75
2018-08-10T04:57:02.787Z,22.5
2018-08-10T04:58:02.745Z,22.75
2018-08-10T04:59:02.672Z,22.75
2018-08-10T05:00:02.706Z,22.75
2018-08-10T05:01:02.742Z,22.75
2018-08-10T05:02:02.704Z,22.75
2018-08-10T05:03:02.701Z,22.75
2018-08-10T05:04:03.036Z,22.75
2018-08-10T05:05:02.738Z,22.75
2018-08-10T05:06:02.537Z,22.75
2018-08-10T05:07:02.669Z,22.75
2018-08-10T05:08:02.815Z,22.75
2018-08-10T05:09:02.878Z,22.75
2018-08-10T05:10:02.730Z,22.75
2018-08-10T05:11:02.732Z,22.75
2018-08-10T05:12:02.864Z,22.75
2018-08-10T05:13:02.793Z,22.75
2018-08-10T05:14:02.987Z,22.75
2018-08-10T05:15:02.724Z,22.75
2018-08-10T05:16:02.599Z,22.75
2018-08-10T05:17:03.058Z,22.75
2018-08-10T05:18:02.906Z,22.75
2018-08-10T05:19:02.834Z,22.75
2018-08-10T05:20:02.870Z,22.75
2018-08-10T05:21:02.739Z,22.75
2018-08-10T05:22:02.783Z,22.75
2018-08-10T05:23:02.733Z,22.75
2018-08-10T05:24:02.932Z,22.75
2018-08-10T05:25:02.599Z,22.75
2018-08-10T05:26:02.819Z,22.75
2018-08-10T05:27:02.774Z,22.75
2018-08-10T05:28:02.719Z,22.75
2018-08-10T05:29:02.618Z,22.75
2018-08-10T05:30:02.704Z,22.75
2018-08-10T05:31:02.798Z,22.75
2018-08-10T05:32:02.750Z,22.75
2018-08-10T05:33:02.847Z,22.75
2018-08-10T05:34:02.585Z,22.75
2018-08-10T05:35:02.666Z,22.75
2018-08-10T05:36:02.666Z,22.75
2018-08-10T05:37:02.625Z,22.75
2018-08-10T05:38:02.690Z,22.75
2018-08-10T05:39:02.816Z,22.75
2018-08-10T05:40:02.499Z,22.75
2018-08-10T05:41:02.705Z,22.75
2018-08-10T05:42:02.796Z,22.75
2018-08-10T05:43:02.562Z,23
2018-08-10T05:44:02.864Z,23
2018-08-10T05:45:02.813Z,23
2018-08-10T05:46:02.655Z,23
2018-08-10T05:47:03.074Z,23
2018-08-10T05:48:03.156Z,23.25
2018-08-10T05:49:02.772Z,23.25
2018-08-10T05:50:02.651Z,23.25
2018-08-10T05:51:03.168Z,23.25
2018-08-10T05:52:02.753Z,23.25
2018-08-10T05:53:02.912Z,23.25
2018-08-10T05:54:02.901Z,23.25
2018-08-10T05:55:02.746Z,23.5
2018-08-10T05:56:02.658Z,23.5
2018-08-10T05:57:02.808Z,23.5
2018-08-10T05:58:02.735Z,23.5
2018-08-10T05:59:02.792Z,23.5
2018-08-10T06:00:02.763Z,23.5
2018-08-10T06:01:02.740Z,23.5
2018-08-10T06:02:02.674Z,23.5
2018-08-10T06:03:02.857Z,23.5
2018-08-10T06:04:03.685Z,23.5
2018-08-10T06:05:02.817Z,23.5
2018-08-10T06:06:02.767Z,23.5
2018-08-10T06:07:02.623Z,23.75
2018-08-10T06:08:02.740Z,23.75
2018-08-10T06:09:02.726Z,23.75
2018-08-10T06:10:02.663Z,23.75
2018-08-10T06:11:02.816Z,23.75
2018-08-10T06:12:02.812Z,23.75
2018-08-10T06:13:02.949Z,23.75
2018-08-10T06:14:02.814Z,23.75
2018-08-10T06:15:02.936Z,23.75
2018-08-10T06:16:02.637Z,23.75
2018-08-10T06:17:02.865Z,23.75
2018-08-10T06:18:02.745Z,23.75
2018-08-10T06:19:02.886Z,23.75
2018-08-10T06:20:03.320Z,23.75
2018-08-10T06:21:02.582Z,23.75
2018-08-10T06:22:02.812Z,23.75
2018-08-10T06:23:02.790Z,23.75
2018-08-10T06:24:02.833Z,23.75
2018-08-10T06:25:03.424Z,23.75
2018-08-10T06:26:02.704Z,24
2018-08-10T06:27:02.720Z,24
2018-08-10T06:28:02.605Z,24
2018-08-10T06:29:02.852Z,24
2018-08-10T06:30:02.856Z,24
2018-08-10T06:31:02.716Z,24
2018-08-10T06:32:02.833Z,24
2018-08-10T06:33:02.759Z,24
2018-08-10T06:34:03.510Z,24
2018-08-10T06:35:02.973Z,24
2018-08-10T06:36:02.608Z,24
2018-08-10T06:37:02.548Z,24
2018-08-10T06:38:02.635Z,24
2018-08-10T06:39:02.778Z,24
2018-08-10T06:40:02.853Z,24
2018-08-10T06:41:02.768Z,24
2018-08-10T06:42:02.538Z,24
2018-08-10T06:43:03.240Z,24
2018-08-10T06:44:02.841Z,24
2018-08-10T06:45:03.287Z,24
2018-08-10T06:46:02.681Z,24
2018-08-10T06:47:02.660Z,24
2018-08-10T06:48:02.710Z,24
2018-08-10T06:49:02.689Z,24
2018-08-10T06:50:02.734Z,24
2018-08-10T06:51:02.836Z,24
2018-08-10T06:52:02.800Z,24
2018-08-10T06:53:02.713Z,24
2018-08-10T06:54:02.881Z,24
2018-08-10T06:55:02.774Z,24
2018-08-10T06:56:03.090Z,24
2018-08-10T06:57:02.700Z,24
2018-08-10T06:58:02.642Z,24
2018-08-10T06:59:02.734Z,24
2018-08-10T07:00:02.590Z,24
2018-08-10T07:01:03.096Z,24
2018-08-10T07:02:02.687Z,24.25
2018-08-10T07:03:02.872Z,24.25
2018-08-10T07:04:02.701Z,24.25
2018-08-10T07:05:02.746Z,24.25
2018-08-10T07:06:02.677Z,24.25
2018-08-10T07:07:02.793Z,24.25
2018-08-10T07:08:02.555Z,24.25
2018-08-10T07:09:02.548Z,24.25
2018-08-10T07:10:02.758Z,24.25
2018-08-10T07:11:02.644Z,24.25
2018-08-10T07:12:02.813Z,24.25
2018-08-10T07:13:02.895Z,24.25
2018-08-10T07:14:02.704Z,24.25
2018-08-10T07:15:02.819Z,24.25
2018-08-10T07:16:02.646Z,24.25
2018-08-10T07:17:02.777Z,24.25
2018-08-10T07:18:02.766Z,24.25
2018-08-10T07:19:02.768Z,24.25
2018-08-10T07:20:02.739Z,24.25
2018-08-10T07:21:02.782Z,24.25
2018-08-10T07:22:02.768Z,24.25
2018-08-10T07:23:03.047Z,24.25
2018-08-10T07:24:02.611Z,24.25
2018-08-10T07:25:02.773Z,24.25
2018-08-10T07:26:02.747Z,24.25
2018-08-10T07:27:02.959Z,24.25
2018-08-10T07:28:02.653Z,24.25
2018-08-10T07:29:02.645Z,24.25
2018-08-10T07:30:02.702Z,24.25
2018-08-10T07:31:02.712Z,24.25
2018-08-10T07:32:02.642Z,24.25
2018-08-10T07:33:02.537Z,24.25
2018-08-10T07:34:02.757Z,24.25
2018-08-10T07:35:02.821Z,24.25
2018-08-10T07:36:02.634Z,24.25
2018-08-10T07:37:02.593Z,24.25
2018-08-10T07:38:02.679Z,24.25
2018-08-10T07:39:02.614Z,24.25
2018-08-10T07:40:02.766Z,24.25
2018-08-10T07:41:02.684Z,24.25
2018-08-10T07:42:02.931Z,24.25
2018-08-10T07:43:02.556Z,24.25
2018-08-10T07:44:02.755Z,24.25
2018-08-10T07:45:02.762Z,24.25
2018-08-10T07:46:02.761Z,24.25
2018-08-10T07:47:02.759Z,24.25
2018-08-10T07:48:02.726Z,24.25
2018-08-10T07:49:02.679Z,24.25
2018-08-10T07:50:02.672Z,24.25
2018-08-10T07:51:02.594Z,24.25
2018-08-10T07:52:02.986Z,24.25
2018-08-10T07:53:02.768Z,24.25
2018-08-10T07:54:02.817Z,24.25
2018-08-10T07:55:02.824Z,24.25
2018-08-10T07:56:02.605Z,24.25
2018-08-10T07:57:02.747Z,24.25
2018-08-10T07:58:02.776Z,24.25
2018-08-10T07:59:02.905Z,24.25
2018-08-10T08:00:02.584Z,24.25
2018-08-10T08:01:02.767Z,24.25
2018-08-10T08:02:02.772Z,24.25
2018-08-10T08:03:02.797Z,24.25
2018-08-10T08:04:02.696Z,24.25
2018-08-10T08:05:02.768Z,24.25
2018-08-10T08:06:02.909Z,24.25
2018-08-10T08:07:03.146Z,24.25
2018-08-10T08:08:02.512Z,24.25
2018-08-10T08:09:02.551Z,24.25
2018-08-10T08:10:02.641Z,24.25
2018-08-10T08:11:02.765Z,24.25
2018-08-10T08:12:02.691Z,24.25
2018-08-10T08:13:02.580Z,24.25
2018-08-10T08:14:02.758Z,24.5
2018-08-10T08:15:02.545Z,24.25
2018-08-10T08:16:02.549Z,24.25
2018-08-10T08:17:02.656Z,24.25
2018-08-10T08:18:02.890Z,24.5
2018-08-10T08:19:02.734Z,24.5
2018-08-10T08:20:02.735Z,24.5
2018-08-10T08:21:02.512Z,24.5
2018-08-10T08:22:02.622Z,24.5
2018-08-10T08:23:02.669Z,24.5
2018-08-10T08:24:02.674Z,24.5
2018-08-10T08:25:02.671Z,24.5
2018-08-10T08:26:02.702Z,24.5
2018-08-10T08:27:02.729Z,24.5
2018-08-10T08:28:02.641Z,24.5
2018-08-10T08:29:02.673Z,24.5
2018-08-10T08:30:02.746Z,24.5
2018-08-10T08:31:02.772Z,24.5
2018-08-10T08:32:02.775Z,24.5
2018-08-10T08:33:02.547Z,24.5
2018-08-10T08:34:02.861Z,24.5
2018-08-10T08:35:03.098Z,24.5
2018-08-10T08:36:02.545Z,24.5
2018-08-10T08:37:03.168Z,24.5
2018-08-10T08:38:02.532Z,24.5
2018-08-10T08:39:02.822Z,24.5
2018-08-10T08:40:02.680Z,24.5
2018-08-10T08:41:03.049Z,24.5
2018-08-10T08:42:02.592Z,24.5
2018-08-10T08:43:02.720Z,24.5
2018-08-10T08:44:02.677Z,24.5
2018-08-10T08:45:02.567Z,24.5
2018-08-10T08:46:03.852Z,24.5
2018-08-10T08:47:02.776Z,24.5
2018-08-10T08:48:02.669Z,24.5
2018-08-10T08:49:02.712Z,24.5
2018-08-10T08:50:03.077Z,24.5
2018-08-10T08:51:02.605Z,24.5
2018-08-10T08:52:02.614Z,24.5
2018-08-10T08:53:02.632Z,24.5
2018-08-10T08:54:02.829Z,24.5
2018-08-10T08:55:02.726Z,24.5
2018-08-10T08:56:02.811Z,24.5
2018-08-10T08:57:02.545Z,24.5
2018-08-10T08:58:02.755Z,24.5
2018-08-10T08:59:02.806Z,24.5
2018-08-10T09:00:02.832Z,24.5
2018-08-10T09:01:02.696Z,24.5
2018-08-10T09:02:02.663Z,24.5
2018-08-10T09:03:02.667Z,24.5
2018-08-10T09:04:02.590Z,24.5
2018-08-10T09:05:02.797Z,24.5
2018-08-10T09:06:02.740Z,24.5
2018-08-10T09:07:02.705Z,24.5
2018-08-10T09:08:02.761Z,24.5
2018-08-10T09:09:02.653Z,24.5
2018-08-10T09:10:02.892Z,24.5
2018-08-10T09:11:02.600Z,24.5
2018-08-10T09:12:02.596Z,24.5
2018-08-10T09:13:02.826Z,24.5
2018-08-10T09:14:02.760Z,24.5
2018-08-10T09:15:02.762Z,24.5
2018-08-10T09:16:02.647Z,24.5
2018-08-10T09:17:03.018Z,24.5
2018-08-10T09:18:02.753Z,24.5
2018-08-10T09:19:02.773Z,24.5
2018-08-10T09:20:02.818Z,24.5
2018-08-10T09:21:02.812Z,24.5
2018-08-10T09:22:02.788Z,24.5
2018-08-10T09:23:02.749Z,24.5
2018-08-10T09:24:02.699Z,24.5
2018-08-10T09:25:02.780Z,24.5
2018-08-10T09:26:02.544Z,24.5
2018-08-10T09:27:03.425Z,24.5
2018-08-10T09:28:02.805Z,24.5
2018-08-10T09:29:02.665Z,24.5
2018-08-10T09:30:02.873Z,24.5
2018-08-10T09:31:02.707Z,24.5
2018-08-10T09:32:02.539Z,24.5
2018-08-10T09:33:02.721Z,24.5
2018-08-10T09:34:02.696Z,24.5
2018-08-10T09:35:02.744Z,24.5
2018-08-10T09:36:02.607Z,24.5
2018-08-10T09:37:02.647Z,24.5
2018-08-10T09:38:02.592Z,24.5
2018-08-10T09:39:02.551Z,24.5
2018-08-10T09:40:02.562Z,24.5
2018-08-10T09:41:02.505Z,24.5
2018-08-10T09:42:02.824Z,24.5
2018-08-10T09:43:02.554Z,24.5
2018-08-10T09:44:02.726Z,24.5
2018-08-10T09:45:02.782Z,24.5
2018-08-10T09:46:02.567Z,24.5
2018-08-10T09:47:02.733Z,24.5
2018-08-10T09:48:02.692Z,24.5
2018-08-10T09:49:02.516Z,24.5
2018-08-10T09:50:02.468Z,24.5
2018-08-10T09:51:02.721Z,24.5
2018-08-10T09:52:02.587Z,24.5
2018-08-10T09:53:02.762Z,24.5
2018-08-10T09:54:02.560Z,24.5
2018-08-10T09:55:02.571Z,24.5
2018-08-10T09:56:02.894Z,24.5
2018-08-10T09:57:02.707Z,24.5
2018-08-10T09:58:02.664Z,24.5
2018-08-10T09:59:02.908Z,24.5
2018-08-10T10:00:02.814Z,24.5
2018-08-10T10:01:02.776Z,24.5
2018-08-10T10:02:02.642Z,24.5
2018-08-10T10:03:02.782Z,24.5
2018-08-10T10:04:02.841Z,24.5
2018-08-10T10:05:02.817Z,24.5
2018-08-10T10:06:02.782Z,24.5
2018-08-10T10:07:02.623Z,24.5
2018-08-10T10:08:02.771Z,24.5
2018-08-10T10:09:02.965Z,24.5
2018-08-10T10:10:02.536Z,24.5
2018-08-10T10:11:02.545Z,24.5
2018-08-10T10:12:02.548Z,24.5
2018-08-10T10:13:02.583Z,24.5
2018-08-10T10:14:02.576Z,24.5
2018-08-10T10:15:02.670Z,24.5
2018-08-10T10:16:03.019Z,24.5
2018-08-10T10:17:02.726Z,24.5
2018-08-10T10:18:02.868Z,24.5
2018-08-10T10:19:02.696Z,24.5
2018-08-10T10:20:02.732Z,24.5
2018-08-10T10:21:02.899Z,24.5
2018-08-10T10:22:02.755Z,24.5
2018-08-10T10:23:02.528Z,24.5
2018-08-10T10:24:02.863Z,24.5
2018-08-10T10:25:02.769Z,24.5
2018-08-10T10:26:02.697Z,24.5
2018-08-10T10:27:02.869Z,24.5
2018-08-10T10:28:02.769Z,24.5
2018-08-10T10:29:02.673Z,24.5
2018-08-10T10:30:02.511Z,24.5
2018-08-10T10:31:02.797Z,24.5
2018-08-10T10:32:02.623Z,24.5
2018-08-10T10:33:02.754Z,24.5
2018-08-10T10:34:02.756Z,24.5
2018-08-10T10:35:02.775Z,24.5
2018-08-10T10:36:02.551Z,24.5
2018-08-10T10:37:02.627Z,24.5
2018-08-10T10:38:02.665Z,24.5
2018-08-10T10:39:02.485Z,24.5
2018-08-10T10:40:02.426Z,24.5
2018-08-10T10:41:02.450Z,24.5
2018-08-10T10:42:02.807Z,24.5
2018-08-10T10:43:02.486Z,24.5
2018-08-10T10:44:02.823Z,24.5
2018-08-10T10:45:02.626Z,24.5
2018-08-10T10:46:02.514Z,24.5
2018-08-10T10:47:02.608Z,24.5
2018-08-10T10:48:02.887Z,24.5
2018-08-10T10:49:02.584Z,24.5
2018-08-10T10:50:02.459Z,24.5
2018-08-10T10:51:03.015Z,24.5
2018-08-10T10:52:02.581Z,24.5
2018-08-10T10:53:02.621Z,24.5
2018-08-10T10:54:02.746Z,24.5
2018-08-10T10:55:02.547Z,24.5
2018-08-10T10:56:02.529Z,24.5
2018-08-10T10:57:02.554Z,24.5
2018-08-10T10:58:02.488Z,24.5
2018-08-10T10:59:02.647Z,24.75
2018-08-10T11:00:02.765Z,24.5
2018-08-10T11:01:02.521Z,24.5
2018-08-10T11:02:02.723Z,24.5
2018-08-10T11:03:02.530Z,24.5
2018-08-10T11:04:02.683Z,24.5
2018-08-10T11:05:02.617Z,24.5
2018-08-10T11:06:02.674Z,24.75
2018-08-10T11:07:02.582Z,24.5
2018-08-10T11:08:02.409Z,24.5
2018-08-10T11:09:02.580Z,24.5
2018-08-10T11:10:02.761Z,24.5
2018-08-10T11:11:02.484Z,24.75
2018-08-10T11:12:02.690Z,24.5
2018-08-10T11:13:02.776Z,24.5
2018-08-10T11:14:02.718Z,24.5
2018-08-10T11:15:02.724Z,24.75
2018-08-10T11:16:02.573Z,24.75
2018-08-10T11:17:33.825Z,24.5
2018-08-10T11:18:02.906Z,24.75
2018-08-10T11:19:02.612Z,24.5
2018-08-10T11:20:02.817Z,24.75
2018-08-10T11:21:02.523Z,24.75
2018-08-10T11:22:02.505Z,24.5
2018-08-10T11:23:02.633Z,24.75
2018-08-10T11:24:02.898Z,24.75
2018-08-10T11:25:02.758Z,24.75
2018-08-10T11:26:03.010Z,24.75
2018-08-10T11:27:02.797Z,24.75
2018-08-10T11:28:02.522Z,24.5
2018-08-10T11:29:02.573Z,24.75
2018-08-10T11:30:02.773Z,24.5
2018-08-10T11:31:02.772Z,24.75
2018-08-10T11:32:02.958Z,24.75
2018-08-10T11:33:02.701Z,24.75
2018-08-10T11:34:02.555Z,24.5
2018-08-10T11:35:02.821Z,24.75
2018-08-10T11:36:02.808Z,24.75
2018-08-10T11:37:02.627Z,24.5
2018-08-10T11:38:02.659Z,24.5
2018-08-10T11:39:02.734Z,24.75
2018-08-10T11:40:02.670Z,24.5
2018-08-10T11:41:02.882Z,24.75
2018-08-10T11:42:02.804Z,24.75
2018-08-10T11:43:02.482Z,24.75
2018-08-10T11:44:02.677Z,24.75
2018-08-10T11:45:03.339Z,24.5
2018-08-10T11:46:02.829Z,24.75
2018-08-10T11:47:02.631Z,24.75
2018-08-10T11:48:03.027Z,24.75
2018-08-10T11:49:02.831Z,24.75
2018-08-10T11:50:02.981Z,24.75
2018-08-10T11:51:02.492Z,24.5
2018-08-10T11:52:02.597Z,24.75
2018-08-10T11:53:02.674Z,24.75
2018-08-10T11:54:02.564Z,24.75
2018-08-10T11:55:02.525Z,24.5
2018-08-10T11:56:02.450Z,24.75
2018-08-10T11:57:02.893Z,24.75
2018-08-10T11:58:02.780Z,24.75
2018-08-10T11:59:02.756Z,24.75
2018-08-10T12:00:02.847Z,24.75
2018-08-10T12:01:02.845Z,24.75
2018-08-10T12:02:02.951Z,24.75
2018-08-10T12:03:02.840Z,24.75
2018-08-10T12:04:02.513Z,24.75
2018-08-10T12:05:02.777Z,24.75
2018-08-10T12:06:03.177Z,24.75
2018-08-10T12:07:02.629Z,24.75
2018-08-10T12:08:02.658Z,24.75
2018-08-10T12:09:02.474Z,24.75
2018-08-10T12:10:02.650Z,24.75
2018-08-10T12:11:02.535Z,24.75
2018-08-10T12:12:02.571Z,24.75
2018-08-10T12:13:02.706Z,24.75
2018-08-10T12:14:02.485Z,24.75
2018-08-10T12:15:02.746Z,24.75
2018-08-10T12:16:02.495Z,24.75
2018-08-10T12:17:02.652Z,24.75
2018-08-10T12:18:02.473Z,24.75
2018-08-10T12:19:02.807Z,24.75
2018-08-10T12:20:02.535Z,24.75
2018-08-10T12:21:02.831Z,24.75
2018-08-10T12:22:02.707Z,24.75
2018-08-10T12:23:02.591Z,24.75
2018-08-10T12:24:02.518Z,24.75
2018-08-10T12:25:02.514Z,24.75
2018-08-10T12:26:02.526Z,24.75
2018-08-10T12:27:02.534Z,24.75
2018-08-10T12:28:02.559Z,24.75
2018-08-10T12:29:02.882Z,24.75
2018-08-10T12:30:02.722Z,24.75
2018-08-10T12:31:02.771Z,24.75
2018-08-10T12:32:02.888Z,24.75
2018-08-10T12:33:02.714Z,24.75
2018-08-10T12:34:02.780Z,24.75
2018-08-10T12:35:02.744Z,24.75
2018-08-10T12:36:02.874Z,24.75
2018-08-10T12:37:02.737Z,24.75
2018-08-10T12:38:02.588Z,24.75
2018-08-10T12:39:02.583Z,24.75
2018-08-10T12:40:02.714Z,24.75
2018-08-10T12:41:02.756Z,24.75
2018-08-10T12:42:02.502Z,24.75
2018-08-10T12:43:02.549Z,24.75
2018-08-10T12:44:02.475Z,24.75
2018-08-10T12:45:02.498Z,24.75
2018-08-10T12:46:02.797Z,24.75
2018-08-10T12:47:02.414Z,24.75
2018-08-10T12:48:02.769Z,24.75
2018-08-10T12:49:02.689Z,24.75
2018-08-10T12:50:02.476Z,24.75
2018-08-10T12:51:02.453Z,24.75
2018-08-10T12:52:02.769Z,24.75
2018-08-10T12:53:02.584Z,24.75
2018-08-10T12:54:02.545Z,24.75
2018-08-10T12:55:02.509Z,24.75
2018-08-10T12:56:02.538Z,24.75
2018-08-10T12:57:03.103Z,24.75
2018-08-10T12:58:02.584Z,24.75
2018-08-10T12:59:02.660Z,24.75
2018-08-10T13:00:02.918Z,24.75
2018-08-10T13:01:02.707Z,24.75
2018-08-10T13:02:02.751Z,24.75
2018-08-10T13:03:03.195Z,24.75
2018-08-10T13:04:02.441Z,24.75
2018-08-10T13:05:02.762Z,24.75
2018-08-10T13:06:02.793Z,24.75
2018-08-10T13:07:02.500Z,24.75
2018-08-10T13:08:02.533Z,24.75
2018-08-10T13:09:02.594Z,24.75
2018-08-10T13:10:02.729Z,24.75
2018-08-10T13:11:02.617Z,24.75
2018-08-10T13:12:02.375Z,24.75